CheckWX is a tool to help pilots better visualize weather data.  It is not intended as a substitute for an official pre-flight weather briefing.

05:18:13 UTC

KFFZ METAR
Falcon Field Airport
Mesa, Arizona, USA
Current

15 mins ago

KFFZ 170503Z 15007KT 10SM VCTS -RA FEW050 SCT070 BKN110 28/15 A2996 RMK AO2 P0000 T02780150
Observed
Sep-17 @ 05:03 UTC
Wind
  • 150° at 7 KTS
Visibility
10 SM
Flight Rules
VFR
Conditions
Area Thunderstorm, Light Rain
Cloud Levels
  • Few at 5,000' AGL
  • Scattered at 7,000' AGL
  • Broken at 11,000' AGL
Temperature
28°C / 82°F
Dewpoint
15°C / 59°F
Heat Index
28°C / 82°F
Humidity
45%
Altimeter
29.96" Hg
Pressure
1014.52 hPa
Current Rain
0.01"
Previous

24 mins ago

KFFZ 170454Z 23009KT 10SM -RA FEW085 SCT110 28/16 A2997 RMK AO2 PK WND 14027/0402 WSHFT 0430 RAB0356E28B43 SLP123 P0000 T02780156
Observed
Sep-17 @ 04:54 UTC
Wind
  • 230° at 9 KTS
Visibility
10 SM
Flight Rules
VFR
Conditions
Light Rain
Cloud Levels
  • Few at 8,500' AGL
  • Scattered at 11,000' AGL
Temperature
28°C / 82°F
Dewpoint
16°C / 61°F
Heat Index
28°C / 82°F
Humidity
48%
Altimeter
29.97" Hg
Pressure
1014.92 hPa
Current Rain
0.01"
Previous

38 mins ago

KFFZ 170440Z 27014KT 10SM VCTS FEW110 28/15 A2999 RMK AO2 PK WND 14027/0402 WSHFT 0407 LTG DSNT NW RAB0356E28 P0000 T02830150
Observed
Sep-17 @ 04:40 UTC
Wind
  • 270° at 14 KTS
Visibility
10 SM
Flight Rules
VFR
Conditions
Area Thunderstorm
Cloud Levels
  • Few at 11,000' AGL
Temperature
28°C / 82°F
Dewpoint
15°C / 59°F
Heat Index
28°C / 82°F
Humidity
45%
Altimeter
29.99" Hg
Pressure
1015.62 hPa
Current Rain
0.01"